Time;durP1;ratioP1;P1;durP2;ratioP2;P2;SDS_P1;SDS_P2;PMS_P1;PMS_P2;Temp;Humidity;BMP_temperature;BMP_pressure;BME280_temperature;BME280_humidity;BME280_pressure;Samples;Min_cycle;Max_cycle;Signal;HPM_P1;HPM_P2
2022/04/29 00:01:37;;;;;;;0.10;0.10;;;7.80;1.00;12.80;88037.00;;;;5076447;28;20190;-72
2022/04/29 00:04:07;;;;;;;0.10;0.10;;;7.70;27.20;12.80;88037.00;;;;5071941;28;20310;-72
2022/04/29 00:06:34;;;;;;;0.10;0.10;;;7.50;99.90;12.80;88037.00;;;;5077619;28;20233;-72
2022/04/29 00:09:03;;;;;;;0.10;0.10;;;7.60;99.90;12.80;88037.00;;;;5077985;28;20663;-72
2022/04/29 00:11:30;;;;;;;0.00;0.00;;;7.70;99.90;12.80;88037.00;;;;5076878;28;20201;-71
2022/04/29 00:13:58;;;;;;;0.10;0.10;;;7.60;99.90;12.80;88037.00;;;;5078059;28;20621;-72
2022/04/29 00:16:27;;;;;;;0.10;0.10;;;7.60;99.90;12.80;88037.00;;;;5078741;28;20214;-72
2022/04/29 00:18:55;;;;;;;0.10;0.10;;;7.50;99.90;12.80;88037.00;;;;5075711;28;20198;-71
2022/04/29 00:21:24;;;;;;;0.05;0.05;;;7.50;99.90;12.80;88037.00;;;;5076566;28;20694;-72
2022/04/29 00:23:52;;;;;;;0.10;0.10;;;7.50;99.90;12.80;88037.00;;;;5073681;28;20567;-72
2022/04/29 00:26:20;;;;;;;0.10;0.10;;;7.40;99.90;12.80;88037.00;;;;5074172;28;20201;-72
2022/04/29 00:28:48;;;;;;;0.08;0.08;;;7.50;99.90;12.80;88037.00;;;;5079137;28;20723;-72
2022/04/29 00:31:16;;;;;;;0.10;0.10;;;7.60;99.90;12.80;88037.00;;;;5076442;28;20209;-72
2022/04/29 00:33:44;;;;;;;0.10;0.10;;;7.60;99.90;12.80;88037.00;;;;5092271;28;20243;-71
2022/04/29 00:36:12;;;;;;;0.08;0.08;;;7.50;99.90;12.80;88037.00;;;;5073740;28;20205;-72
2022/04/29 00:38:42;;;;;;;0.10;0.10;;;7.50;99.90;12.80;88037.00;;;;5081940;28;20190;-70
2022/04/29 00:41:10;;;;;;;0.10;0.10;;;7.60;99.90;12.80;88037.00;;;;5078775;28;20202;-72
2022/04/29 00:43:38;;;;;;;0.10;0.10;;;7.60;99.90;12.80;88037.00;;;;5080551;28;20289;-71
2022/04/29 00:46:08;;;;;;;0.00;0.00;;;7.70;99.90;12.80;88037.00;;;;5071946;28;20209;-71
2022/04/29 00:48:36;;;;;;;0.00;0.00;;;7.60;99.90;12.80;88037.00;;;;5076554;28;20213;-71
2022/04/29 00:51:05;;;;;;;0.05;0.05;;;7.50;99.90;12.80;88037.00;;;;5077430;28;20686;-70
2022/04/29 00:53:34;;;;;;;0.10;0.10;;;7.40;99.90;12.80;88037.00;;;;5076015;28;20747;-71
2022/04/29 00:56:05;;;;;;;0.00;0.00;;;7.50;99.90;12.80;88037.00;;;;5072682;28;20208;-72
2022/04/29 00:58:38;;;;;;;0.10;0.10;;;7.30;99.90;12.80;88037.00;;;;5060364;28;20403;-72
2022/04/29 01:01:07;;;;;;;0.00;0.00;;;7.30;99.90;12.80;88037.00;;;;5089379;28;20194;-71
2022/04/29 01:03:39;;;;;;;0.10;0.10;;;7.20;99.90;12.80;88037.00;;;;5094627;28;20582;-70
2022/04/29 01:06:07;;;;;;;0.10;0.10;;;7.10;99.90;12.80;88037.00;;;;5073600;28;20205;-69
2022/04/29 01:08:36;;;;;;;0.00;0.00;;;7.10;99.90;12.80;88037.00;;;;5074569;28;20746;-71
2022/04/29 01:11:06;;;;;;;0.10;0.10;;;6.90;99.90;12.80;88037.00;;;;5077364;28;20201;-71
2022/04/29 01:13:35;;;;;;;0.10;0.10;;;7.00;99.90;12.80;88037.00;;;;5068885;28;20194;-71
2022/04/29 01:16:06;;;;;;;0.10;0.10;;;7.00;99.90;12.80;88037.00;;;;5065271;28;20267;-71
2022/04/29 01:18:35;;;;;;;0.10;0.10;;;6.90;99.90;12.80;88037.00;;;;5074021;28;20233;-71
2022/04/29 01:21:06;;;;;;;0.10;0.10;;;7.00;99.90;12.80;88037.00;;;;5065645;28;20619;-71
2022/04/29 01:23:36;;;;;;;0.10;0.10;;;6.90;99.90;12.80;88037.00;;;;5075082;28;20612;-71
2022/04/29 01:26:05;;;;;;;0.10;0.10;;;6.80;99.90;12.80;88037.00;;;;5089729;28;20279;-71
2022/04/29 01:28:36;;;;;;;0.10;0.10;;;6.70;99.90;12.80;88037.00;;;;5073019;28;20212;-71
2022/04/29 01:31:06;;;;;;;0.10;0.10;;;6.70;99.90;12.80;88037.00;;;;5064323;28;20741;-71
2022/04/29 01:33:36;;;;;;;0.10;0.10;;;6.80;99.90;12.80;88037.00;;;;5066467;28;20195;-71
2022/04/29 01:36:06;;;;;;;0.10;0.10;;;6.70;99.90;12.80;88037.00;;;;5076547;28;20583;-71
2022/04/29 01:38:36;;;;;;;0.10;0.10;;;6.70;99.90;12.80;88037.00;;;;5072471;28;20239;-71
2022/04/29 01:41:05;;;;;;;0.10;0.10;;;6.50;99.90;12.80;88037.00;;;;5070661;28;20671;-71
2022/04/29 01:43:38;;;;;;;0.10;0.10;;;6.60;99.90;12.80;88037.00;;;;5085906;28;20190;-71
2022/04/29 01:46:08;;;;;;;0.10;0.10;;;6.70;99.90;12.80;88037.00;;;;5085046;28;20218;-71
2022/04/29 01:48:45;;;;;;;0.10;0.10;;;6.70;99.90;12.80;88037.00;;;;5076896;28;20217;-70
2022/04/29 01:51:18;;;;;;;0.10;0.10;;;6.70;99.90;12.80;88037.00;;;;5084321;28;20262;-70
2022/04/29 01:53:53;;;;;;;0.10;0.10;;;6.60;99.90;12.80;88037.00;;;;5071781;28;20221;-70
2022/04/29 01:56:32;;;;;;;0.10;0.10;;;6.60;99.90;12.80;88037.00;;;;5070240;28;20615;-70
2022/04/29 01:59:04;;;;;;;0.10;0.10;;;6.60;99.90;12.80;88037.00;;;;5053312;28;20767;-70
2022/04/29 02:01:37;;;;;;;0.10;0.10;;;6.60;99.90;12.80;88037.00;;;;5086201;28;20207;-71
2022/04/29 02:04:06;;;;;;;0.00;0.00;;;6.70;99.90;12.80;88037.00;;;;5072714;28;20252;-70
2022/04/29 02:06:34;;;;;;;0.10;0.10;;;6.50;99.90;12.80;88037.00;;;;5065510;28;20370;-70
2022/04/29 02:09:05;;;;;;;0.00;0.00;;;6.50;99.90;12.80;88037.00;;;;5084165;28;20201;-71
2022/04/29 02:11:34;;;;;;;0.10;0.10;;;6.40;99.90;12.80;88037.00;;;;5066610;28;20682;-71
2022/04/29 02:14:37;;;;;;;0.10;0.10;;;6.10;99.90;12.80;88037.00;;;;5069368;28;20222;-71
2022/04/29 02:17:07;;;;;;;0.10;0.10;;;5.90;99.90;12.80;88037.00;;;;5067827;28;20667;-71
2022/04/29 02:19:36;;;;;;;0.10;0.10;;;5.90;1.00;12.80;88037.00;;;;5093444;28;20198;-73
2022/04/29 02:22:08;;;;;;;0.00;0.00;;;5.80;1.00;12.80;88037.00;;;;5068061;28;20675;-72
2022/04/29 02:24:38;;;;;;;0.10;0.10;;;6.00;1.00;12.80;88037.00;;;;5052242;28;20256;-73
2022/04/29 02:27:08;;;;;;;0.10;0.10;;;5.90;99.90;12.80;88037.00;;;;5070022;28;20224;-70
2022/04/29 02:29:39;;;;;;;0.10;0.10;;;5.90;1.00;12.80;88037.00;;;;5070795;28;20539;-69
2022/04/29 02:32:14;;;;;;;0.10;0.10;;;6.00;99.90;12.80;88037.00;;;;5066083;28;20295;-71
2022/04/29 02:34:42;;;;;;;0.10;0.10;;;6.10;99.90;12.80;88037.00;;;;5072042;28;20218;-73
2022/04/29 02:37:12;;;;;;;0.10;0.10;;;6.00;99.90;12.80;88037.00;;;;5064066;28;20213;-69
2022/04/29 02:39:44;;;;;;;0.10;0.10;;;5.90;99.90;12.80;88037.00;;;;5070548;28;20232;-71
2022/04/29 02:42:12;;;;;;;0.00;0.00;;;5.80;99.90;12.80;88037.00;;;;5062699;28;20194;-69
2022/04/29 02:44:40;;;;;;;0.10;0.10;;;5.80;99.90;12.80;88037.00;;;;5068322;28;20220;-70
2022/04/29 02:47:10;;;;;;;0.10;0.10;;;5.80;99.90;12.80;88037.00;;;;5067409;28;20228;-70
2022/04/29 02:49:41;;;;;;;0.10;0.10;;;5.80;99.90;12.80;88037.00;;;;5071868;28;20235;-73
2022/04/29 02:52:13;;;;;;;0.10;0.10;;;5.70;99.90;12.80;88037.00;;;;5069268;28;20202;-71
2022/04/29 02:54:42;;;;;;;0.10;0.10;;;5.60;1.00;12.80;88037.00;;;;5068925;28;20305;-71
2022/04/29 02:57:23;;;;;;;0.10;0.10;;;5.60;1.00;12.80;88037.00;;;;5070603;28;20212;-68
2022/04/29 02:59:51;;;;;;;0.10;0.10;;;5.70;1.00;12.80;88037.00;;;;5061442;28;20687;-68
2022/04/29 03:02:19;;;;;;;0.00;0.00;;;5.60;99.90;12.80;88037.00;;;;5071044;28;20624;-68
2022/04/29 03:04:47;;;;;;;0.10;0.10;;;5.60;1.00;12.80;88037.00;;;;5065356;28;20217;-69
2022/04/29 03:07:15;;;;;;;0.20;0.20;;;5.60;1.00;12.80;88037.00;;;;5066806;28;20456;-68
2022/04/29 03:09:53;;;;;;;0.10;0.10;;;5.60;1.00;12.80;88037.00;;;;5065519;28;20244;-70
2022/04/29 03:12:23;;;;;;;0.10;0.10;;;5.50;1.00;12.80;88037.00;;;;5052294;28;20190;-71
2022/04/29 03:15:19;;;;;;;0.10;0.10;;;5.60;1.00;12.80;88037.00;;;;5062002;28;20221;-69
2022/04/29 03:20:37;;;;;;;0.10;0.10;;;5.60;99.90;12.80;88037.00;;;;5074009;28;20248;-71
2022/04/29 03:23:07;;;;;;;0.08;0.08;;;5.60;99.90;12.80;88037.00;;;;5071026;28;20235;-68
2022/04/29 03:25:37;;;;;;;0.10;0.10;;;5.60;99.90;12.80;88037.00;;;;5066916;28;20703;-72
2022/04/29 03:28:08;;;;;;;0.10;0.10;;;5.50;99.90;12.80;88037.00;;;;5068822;28;20201;-69
2022/04/29 03:30:37;;;;;;;0.10;0.10;;;5.60;99.90;12.80;88037.00;;;;5066743;28;20646;-69
2022/04/29 03:33:08;;;;;;;0.10;0.10;;;5.60;99.90;12.80;88037.00;;;;5086677;28;20221;-69
2022/04/29 03:35:43;;;;;;;0.10;0.10;;;5.60;99.90;12.80;88037.00;;;;5071309;28;20205;-70
2022/04/29 03:38:35;;;;;;;0.10;0.10;;;5.50;99.90;12.80;88037.00;;;;5070080;28;20193;-69
2022/04/29 03:41:04;;;;;;;0.10;0.10;;;5.60;99.90;12.80;88037.00;;;;5086439;28;20198;-72
2022/04/29 03:43:34;;;;;;;0.00;0.00;;;5.50;99.90;12.80;88037.00;;;;5071436;28;20542;-72
2022/04/29 03:46:05;;;;;;;0.10;0.10;;;5.40;99.90;12.80;88037.00;;;;5071691;28;20247;-68
2022/04/29 03:51:48;;;;;;;0.10;0.10;;;5.30;99.90;12.80;88037.00;;;;5089881;28;20186;-70
2022/04/29 03:54:16;;;;;;;0.10;0.10;;;5.40;99.90;12.80;88037.00;;;;5082036;28;20206;-71
2022/04/29 03:56:52;;;;;;;0.10;0.10;;;5.30;99.90;12.80;88037.00;;;;5087434;28;20208;-71
2022/04/29 03:59:23;;;;;;;0.00;0.00;;;5.20;99.90;12.80;88037.00;;;;5069516;28;20190;-71
2022/04/29 04:01:51;;;;;;;0.10;0.10;;;5.20;99.90;12.80;88037.00;;;;5059401;28;20190;-71
2022/04/29 04:04:19;;;;;;;0.10;0.10;;;5.30;99.90;12.80;88037.00;;;;5061534;28;20541;-70
2022/04/29 04:06:51;;;;;;;0.10;0.10;;;5.40;99.90;12.80;88037.00;;;;5064253;28;20210;-71
2022/04/29 04:09:24;;;;;;;0.05;0.05;;;5.50;99.90;12.80;88037.00;;;;5067443;28;20198;-72
2022/04/29 04:11:59;;;;;;;0.10;0.10;;;5.40;99.90;12.80;88037.00;;;;5066156;28;20190;-71
2022/04/29 04:14:54;;;;;;;0.10;0.10;;;5.40;99.90;12.80;88037.00;;;;5071222;28;20554;-71
2022/04/29 04:17:22;;;;;;;0.10;0.10;;;5.20;99.90;12.80;88037.00;;;;5069748;28;20209;-71
2022/04/29 04:19:56;;;;;;;0.10;0.10;;;5.20;99.90;12.80;88037.00;;;;5086167;28;20231;-72
2022/04/29 04:22:26;;;;;;;0.10;0.10;;;5.30;99.90;12.80;88037.00;;;;5065627;28;20195;-72
2022/04/29 04:24:54;;;;;;;0.10;0.10;;;5.30;99.90;12.80;88037.00;;;;5074625;28;20582;-71
2022/04/29 04:27:23;;;;;;;0.10;0.10;;;5.20;99.90;12.80;88037.00;;;;5060481;28;20726;-71
2022/04/29 04:29:51;;;;;;;0.10;0.10;;;5.10;1.00;12.80;88037.00;;;;5072425;28;20284;-71
2022/04/29 04:32:20;;;;;;;0.10;0.10;;;5.10;1.00;12.80;88037.00;;;;5076562;28;20216;-71
2022/04/29 04:34:52;;;;;;;0.10;0.10;;;5.00;1.00;12.80;88037.00;;;;5089713;28;20554;-72
2022/04/29 04:37:23;;;;;;;0.10;0.10;;;5.10;1.00;12.80;88037.00;;;;5074621;28;20200;-70
2022/04/29 04:39:58;;;;;;;0.10;0.10;;;5.10;1.00;12.80;88037.00;;;;5075230;28;20205;-71
2022/04/29 04:42:32;;;;;;;0.10;0.10;;;5.20;1.00;12.80;88037.00;;;;5064730;28;20573;-72
2022/04/29 04:45:03;;;;;;;0.10;0.10;;;5.20;1.00;12.80;88037.00;;;;5088919;28;20778;-71
2022/04/29 04:47:39;;;;;;;0.10;0.10;;;5.30;1.00;12.80;88037.00;;;;5073341;28;20710;-70
2022/04/29 04:50:27;;;;;;;0.00;0.00;;;5.30;1.00;12.80;88037.00;;;;5074851;28;20213;-71
2022/04/29 04:52:55;;;;;;;0.10;0.10;;;5.30;1.00;12.80;88037.00;;;;5070129;28;20213;-70
2022/04/29 04:55:24;;;;;;;0.10;0.10;;;5.20;1.00;12.80;88037.00;;;;5074210;28;20566;-72
2022/04/29 04:57:52;;;;;;;0.10;0.10;;;5.40;1.00;12.80;88037.00;;;;5073712;28;20201;-71
2022/04/29 05:00:20;;;;;;;0.10;0.10;;;5.50;99.90;12.80;88037.00;;;;5089763;28;20285;-71
2022/04/29 05:03:15;;;;;;;0.10;0.10;;;5.50;99.90;12.80;88037.00;;;;5089746;28;20193;-71
2022/04/29 05:06:06;;;;;;;0.10;0.10;;;5.60;99.90;12.80;88037.00;;;;5072717;28;20203;-71
2022/04/29 05:08:34;;;;;;;0.10;0.10;;;5.50;99.90;12.80;88037.00;;;;5082595;28;20236;-71
2022/04/29 05:11:02;;;;;;;0.10;0.10;;;5.50;99.90;12.80;88037.00;;;;5074599;28;20197;-72
2022/04/29 05:13:30;;;;;;;0.00;0.00;;;5.60;99.90;12.80;88037.00;;;;5073126;28;20201;-72
2022/04/29 05:15:58;;;;;;;0.10;0.10;;;5.60;99.90;12.80;88037.00;;;;5074062;28;20284;-72
2022/04/29 05:18:34;;;;;;;0.00;0.00;;;5.70;99.90;12.80;88037.00;;;;5073566;28;20487;-72
2022/04/29 05:21:14;;;;;;;0.10;0.10;;;5.60;99.90;12.80;88037.00;;;;5073076;28;20204;-73
2022/04/29 05:23:42;;;;;;;0.00;0.00;;;5.70;99.90;12.80;88037.00;;;;5068829;28;20212;-72
2022/04/29 05:26:33;;;;;;;0.00;0.00;;;5.70;99.90;12.80;88037.00;;;;5065695;28;20645;-72
2022/04/29 05:29:27;;;;;;;0.10;0.10;;;5.80;1.00;12.80;88037.00;;;;5073397;28;20190;-72
2022/04/29 05:32:14;;;;;;;0.10;0.10;;;5.90;1.00;12.80;88037.00;;;;5076061;28;20288;-70
2022/04/29 05:35:06;;;;;;;0.10;0.10;;;6.00;1.00;12.80;88037.00;;;;5074304;28;20217;-70
2022/04/29 05:37:53;;;;;;;0.10;0.10;;;6.00;1.00;12.80;88037.00;;;;5074669;28;20228;-71
2022/04/29 05:43:09;;;;;;;0.00;0.00;;;6.20;1.00;12.80;88037.00;;;;5064758;28;20221;-72
2022/04/29 05:45:37;;;;;;;0.10;0.10;;;6.40;1.00;12.80;88037.00;;;;5073157;28;20209;-71
2022/04/29 05:48:06;;;;;;;0.10;0.10;;;6.50;99.90;12.80;88037.00;;;;5068538;28;20249;-70
2022/04/29 05:50:36;;;;;;;0.00;0.00;;;6.50;99.90;12.80;88037.00;;;;5074230;28;20202;-71
2022/04/29 05:53:06;;;;;;;0.10;0.10;;;6.60;1.00;12.80;88037.00;;;;5071656;28;20206;-70
2022/04/29 05:55:37;;;;;;;0.10;0.10;;;6.60;1.00;12.80;88037.00;;;;5087615;28;20288;-71
2022/04/29 05:58:21;;;;;;;0.10;0.10;;;6.70;1.00;12.80;88037.00;;;;5071468;28;20671;-71
2022/04/29 06:01:18;;;;;;;0.10;0.10;;;6.80;1.00;12.80;88037.00;;;;5073124;28;20205;-71
2022/04/29 06:03:47;;;;;;;0.08;0.08;;;6.80;1.00;12.80;88037.00;;;;5071837;28;20197;-71
2022/04/29 06:06:16;;;;;;;0.10;0.10;;;6.90;1.00;12.80;88037.00;;;;5071372;28;20292;-70
2022/04/29 06:08:51;;;;;;;0.10;0.10;;;7.00;99.90;12.80;88037.00;;;;5071500;28;20598;-71
2022/04/29 06:11:19;;;;;;;0.10;0.10;;;7.00;99.90;12.80;88037.00;;;;5070511;28;20621;-71
2022/04/29 06:13:48;;;;;;;0.10;0.10;;;7.00;99.90;12.80;88037.00;;;;5067565;28;20229;-71
2022/04/29 06:16:34;;;;;;;0.10;0.10;;;7.20;99.90;12.80;88037.00;;;;5069257;28;20212;-71
2022/04/29 06:19:22;;;;;;;0.10;0.10;;;7.30;99.90;12.80;88037.00;;;;5072840;28;20221;-71
2022/04/29 06:22:05;;;;;;;0.10;0.10;;;7.40;99.90;12.80;88037.00;;;;5060179;28;20224;-71
2022/04/29 06:24:39;;;;;;;0.10;0.10;;;7.50;99.90;12.80;88037.00;;;;5071110;28;20224;-71
2022/04/29 06:27:27;;;;;;;0.03;0.03;;;7.70;99.90;12.80;88037.00;;;;5081814;28;20240;-71
2022/04/29 06:29:56;;;;;;;0.10;0.10;;;7.90;99.90;12.80;88037.00;;;;5072044;28;20206;-71
2022/04/29 06:32:28;;;;;;;0.10;0.10;;;8.00;99.90;12.80;88037.00;;;;5071308;28;20225;-72
2022/04/29 06:35:19;;;;;;;0.10;0.10;;;8.10;99.90;12.80;88037.00;;;;5073098;28;20248;-71
2022/04/29 06:37:50;;;;;;;0.10;0.10;;;8.20;99.90;12.80;88037.00;;;;5069392;28;20206;-71
2022/04/29 06:40:53;;;;;;;0.10;0.10;;;8.30;99.90;12.80;88037.00;;;;5070249;28;20193;-71
2022/04/29 06:43:21;;;;;;;0.10;0.10;;;8.40;99.90;12.80;88037.00;;;;5087746;28;20217;-71
2022/04/29 06:46:18;;;;;;;0.10;0.10;;;8.50;99.90;12.80;88037.00;;;;5051799;28;20199;-71
2022/04/29 06:49:13;;;;;;;0.10;0.10;;;8.70;99.90;12.80;88037.00;;;;5064011;28;20711;-71
2022/04/29 06:51:59;;;;;;;0.03;0.03;;;8.70;99.90;12.80;88037.00;;;;5072629;28;20217;-71
2022/04/29 06:54:37;;;;;;;0.10;0.10;;;8.80;99.90;12.80;88037.00;;;;5070990;28;20217;-71
2022/04/29 06:57:09;;;;;;;0.10;0.10;;;9.00;99.90;12.80;88037.00;;;;5070790;28;20232;-71
2022/04/29 06:59:37;;;;;;;0.10;0.10;;;9.10;99.90;12.80;88037.00;;;;5071209;28;20255;-70
2022/04/29 07:02:07;;;;;;;0.10;0.10;;;9.30;99.90;12.80;88037.00;;;;5062223;28;20297;-70
2022/04/29 07:04:35;;;;;;;0.10;0.10;;;9.30;99.90;12.80;88037.00;;;;5051109;28;20222;-71
2022/04/29 07:07:05;;;;;;;0.10;0.10;;;9.40;99.90;12.80;88037.00;;;;5066398;28;20201;-71
2022/04/29 07:09:39;;;;;;;0.00;0.00;;;9.60;99.90;12.80;88037.00;;;;5070620;28;20282;-71
2022/04/29 07:12:47;;;;;;;0.10;0.10;;;9.80;19.60;12.80;88037.00;;;;5068613;28;20197;-71
2022/04/29 07:15:16;;;;;;;0.10;0.10;;;9.90;1.00;12.80;88037.00;;;;5093019;28;20213;-71
2022/04/29 07:17:45;;;;;;;0.10;0.10;;;10.00;1.00;12.80;88037.00;;;;5089499;28;20194;-71
2022/04/29 07:20:15;;;;;;;0.10;0.10;;;10.10;1.00;12.80;88037.00;;;;5086632;28;20740;-71
2022/04/29 07:22:44;;;;;;;0.10;0.10;;;10.30;1.00;12.80;88037.00;;;;5091936;28;20254;-71
2022/04/29 07:25:19;;;;;;;0.05;0.05;;;10.40;1.00;12.80;88037.00;;;;5088914;28;20228;-71
2022/04/29 07:27:48;;;;;;;0.10;0.10;;;10.50;1.00;12.80;88037.00;;;;5076697;28;20211;-71
2022/04/29 07:30:17;;;;;;;0.10;0.10;;;10.70;1.00;12.80;88037.00;;;;5048853;28;20206;-71
2022/04/29 07:32:53;;;;;;;0.10;0.10;;;10.90;1.00;12.80;88037.00;;;;5062914;28;20302;-71
2022/04/29 07:41:45;;;;;;;0.00;0.00;;;11.40;73.20;12.80;88037.00;;;;5040329;28;20206;-70
2022/04/29 07:44:17;;;;;;;0.10;0.10;;;11.50;1.00;12.80;88037.00;;;;5091395;28;20279;-70
2022/04/29 07:46:49;;;;;;;0.00;0.00;;;11.70;1.00;12.80;88037.00;;;;5093642;28;20568;-70
2022/04/29 07:49:47;;;;;;;0.10;0.10;;;11.80;1.00;12.80;88037.00;;;;5083087;28;20239;-70
2022/04/29 07:52:20;;;;;;;0.10;0.10;;;12.00;99.90;12.80;88037.00;;;;5090582;28;20189;-70
2022/04/29 07:54:59;;;;;;;0.10;0.10;;;12.20;99.90;12.80;88037.00;;;;5079193;28;20240;-69
2022/04/29 07:57:29;;;;;;;0.00;0.00;;;12.40;99.90;12.80;88037.00;;;;5072890;28;20202;-70
2022/04/29 07:59:58;;;;;;;0.10;0.10;;;12.60;1.00;12.80;88037.00;;;;5067186;28;20302;-70
2022/04/29 08:02:47;;;;;;;0.10;0.10;;;12.80;1.00;12.80;88037.00;;;;5071298;28;20247;-70
2022/04/29 08:05:23;;;;;;;0.10;0.10;;;13.00;1.00;12.80;88037.00;;;;5069229;28;20213;-70
2022/04/29 08:07:51;;;;;;;0.08;0.08;;;13.20;99.90;12.80;88037.00;;;;5071311;28;20631;-70
2022/04/29 08:10:19;;;;;;;0.10;0.10;;;13.40;1.00;12.80;88037.00;;;;5075039;28;20244;-70
2022/04/29 08:12:49;;;;;;;0.10;0.10;;;13.70;1.00;12.80;88037.00;;;;5072303;28;20192;-70
2022/04/29 08:15:45;;;;;;;0.10;0.10;;;13.90;99.90;12.80;88037.00;;;;5069025;28;20228;-70
2022/04/29 08:18:36;;;;;;;0.10;0.10;;;14.10;1.00;12.80;88037.00;;;;5071615;28;20659;-70
2022/04/29 08:21:08;;;;;;;0.00;0.00;;;14.30;99.90;12.80;88037.00;;;;5079057;28;20208;-70
2022/04/29 08:23:38;;;;;;;0.10;0.10;;;14.60;1.00;12.80;88037.00;;;;5084397;28;20214;-70
2022/04/29 08:26:06;;;;;;;0.10;0.10;;;14.60;1.00;12.80;88037.00;;;;5081189;28;20206;-70
2022/04/29 08:28:35;;;;;;;0.10;0.10;;;14.80;1.00;12.80;88037.00;;;;5084033;28;20274;-70
2022/04/29 08:31:06;;;;;;;0.00;0.00;;;15.00;87.90;12.80;88037.00;;;;5075988;28;20197;-70
2022/04/29 08:33:51;;;;;;;0.10;0.10;;;15.20;1.00;12.80;88037.00;;;;5070499;28;20199;-70
2022/04/29 08:36:20;;;;;;;0.00;0.00;;;15.30;1.00;12.80;88037.00;;;;5088679;28;20228;-70
2022/04/29 08:38:48;;;;;;;0.10;0.10;;;15.40;1.00;12.80;88037.00;;;;5077990;28;20205;-70
2022/04/29 08:41:20;;;;;;;0.00;0.00;;;15.60;99.90;12.80;88037.00;;;;5079128;28;20643;-71
2022/04/29 08:43:50;;;;;;;0.05;0.05;;;15.70;99.90;12.80;88037.00;;;;5074203;28;20628;-71
2022/04/29 08:46:34;;;;;;;0.00;0.00;;;15.90;1.00;313.10;52860.00;;;;5074571;28;20193;-70
2022/04/29 08:49:16;;;;;;;0.10;0.10;;;16.00;99.90;313.10;52856.00;;;;5078121;28;20233;-71
2022/04/29 08:51:45;;;;;;;0.00;0.00;;;16.00;1.00;313.40;52841.00;;;;5080873;28;20196;-70
2022/04/29 08:58:36;;;;;;;0.10;0.10;;;16.20;1.00;313.60;52814.00;;;;5072916;28;20236;-70
2022/04/29 08:59:52;;;;;;;0.00;0.00;;;16.40;1.00;314.40;52756.00;;;;5074174;28;20201;-71
2022/04/29 09:02:20;;;;;;;0.00;0.00;;;16.70;1.00;314.70;52529.00;;;;5074334;28;20194;-71
2022/04/29 09:04:50;;;;;;;0.00;0.00;;;16.80;1.00;314.90;52511.00;;;;5066502;28;20210;-71
2022/04/29 09:07:19;;;;;;;0.00;0.00;;;17.00;99.90;314.20;52763.00;;;;5074148;28;20193;-71
2022/04/29 09:10:05;;;;;;;0.10;0.10;;;16.70;99.90;313.90;52785.00;;;;5074206;28;20213;-70
2022/04/29 09:12:33;;;;;;;0.10;0.10;;;16.70;99.90;313.40;52831.00;;;;5074114;28;20204;-71
2022/04/29 09:15:14;;;;;;;0.10;0.10;;;16.20;99.90;313.40;52826.00;;;;5072103;28;20210;-71
2022/04/29 09:17:46;;;;;;;0.10;0.10;;;16.30;99.90;313.40;52830.00;;;;5072863;28;20233;-71
2022/04/29 09:20:16;;;;;;;0.00;0.00;;;16.30;99.90;314.00;52781.00;;;;5077276;28;20217;-71
2022/04/29 09:22:47;;;;;;;0.08;0.08;;;16.50;99.90;314.60;52737.00;;;;5074118;28;20259;-71
2022/04/29 09:25:36;;;;;;;0.00;0.00;;;16.70;99.90;314.70;52527.00;;;;5074419;28;20252;-71
2022/04/29 09:28:27;;;;;;;0.00;0.00;;;16.90;99.90;314.90;52514.00;;;;5074555;28;20214;-71
2022/04/29 09:31:15;;;;;;;0.00;0.00;;;17.00;99.90;315.20;52489.00;;;;5074554;28;20225;-71
2022/04/29 09:34:01;;;;;;;0.00;0.00;;;17.10;99.90;315.40;52473.00;;;;5059165;28;20344;-71
2022/04/29 09:36:44;;;;;;;0.00;0.00;;;17.30;99.90;315.00;52504.00;;;;5071321;28;20612;-71
2022/04/29 09:39:30;;;;;;;0.00;0.00;;;17.00;99.90;315.00;52499.00;;;;5073546;28;20263;-71
2022/04/29 09:42:00;;;;;;;0.00;0.00;;;17.00;99.90;315.20;52445.00;;;;5068882;28;20304;-71
2022/04/29 09:44:31;;;;;;;0.00;0.00;;;17.10;99.90;315.10;52457.00;;;;5073257;28;20764;-71
2022/04/29 09:47:12;;;;;;;0.00;0.00;;;17.10;99.90;315.20;52438.00;;;;5066954;28;20191;-71
2022/04/29 09:49:41;;;;;;;0.00;0.00;;;17.30;99.90;315.90;52387.00;;;;5067023;28;20229;-71
2022/04/29 09:52:09;;;;;;;0.00;0.00;;;17.50;99.90;316.80;52318.00;;;;5054717;28;20252;-71
2022/04/29 09:54:38;;;;;;;0.05;0.05;;;17.80;99.90;317.40;52271.00;;;;5073877;28;20225;-71
2022/04/29 09:57:12;;;;;;;0.03;0.03;;;18.10;96.00;317.80;52241.00;;;;5075174;28;20239;-71
2022/04/29 09:59:43;;;;;;;0.00;0.00;;;18.30;79.60;318.10;52219.00;;;;5074137;28;20690;-71
2022/04/29 10:02:14;;;;;;;0.00;0.00;;;18.50;68.60;318.00;52222.00;;;;5073573;28;20194;-71
2022/04/29 10:04:48;;;;;;;0.00;0.00;;;18.50;71.70;318.20;52205.00;;;;5071665;28;20213;-71
2022/04/29 10:07:19;;;;;;;0.00;0.00;;;18.60;54.40;318.10;52211.00;;;;5072403;28;20201;-71
2022/04/29 10:09:54;;;;;;;0.00;0.00;;;18.60;44.30;317.90;52223.00;;;;5088763;28;20218;-71
2022/04/29 10:12:26;;;;;;;0.00;0.00;;;18.60;46.30;317.60;52242.00;;;;5073330;28;20197;-71
2022/04/29 10:15:16;;;;;;;0.00;0.00;;;18.50;38.80;317.90;52223.00;;;;5069524;28;20709;-71
2022/04/29 10:23:41;;;;;;;0.00;0.00;;;19.00;92.70;318.40;52185.00;;;;5068592;28;20509;-71
2022/04/29 10:26:10;;;;;;;0.00;0.00;;;18.80;16.20;318.20;52197.00;;;;5072750;28;20190;-71
2022/04/29 10:28:38;;;;;;;0.05;0.05;;;18.80;27.50;318.00;52219.00;;;;5072047;28;20186;-71
2022/04/29 10:31:09;;;;;;;0.00;0.00;;;18.60;25.40;317.40;52263.00;;;;5072049;28;20221;-71
2022/04/29 10:33:38;;;;;;;0.00;0.00;;;18.40;33.20;317.90;52223.00;;;;5072621;28;20655;-71
2022/04/29 10:36:10;;;;;;;0.00;0.00;;;18.60;57.60;318.40;52168.00;;;;5071468;28;20202;-71
2022/04/29 10:38:41;;;;;;;0.00;0.00;;;18.80;51.30;319.20;52113.00;;;;5072467;28;20200;-71
2022/04/29 10:41:16;;;;;;;0.00;0.00;;;19.00;31.10;319.30;52114.00;;;;5070996;28;20201;-71
2022/04/29 10:44:03;;;;;;;0.00;0.00;;;19.10;50.60;319.70;52087.00;;;;5071234;28;20189;-71
2022/04/29 10:46:33;;;;;;;0.00;0.00;;;19.30;48.80;320.60;52013.00;;;;5071477;28;20194;-71
2022/04/29 10:49:25;;;;;;;0.00;0.00;;;19.60;47.30;320.50;52023.00;;;;5071609;28;20304;-71
2022/04/29 10:52:27;;;;;;;0.00;0.00;;;19.70;28.90;320.40;52022.00;;;;5070791;28;20193;-71
2022/04/29 10:55:26;;;;;;;0.00;0.00;;;19.80;50.70;320.20;52037.00;;;;5068895;28;20229;-71
2022/04/29 10:58:18;;;;;;;0.00;0.00;;;19.70;28.10;320.20;52035.00;;;;5067534;28;20233;-71
2022/04/29 11:00:55;;;;;;;0.00;0.00;;;19.70;23.80;320.10;52042.00;;;;5063488;28;20221;-71
2022/04/29 11:03:38;;;;;;;0.00;0.00;;;19.70;47.20;320.00;52047.00;;;;5069793;28;20447;-71
2022/04/29 11:06:14;;;;;;;0.00;0.00;;;19.60;15.40;320.10;52039.00;;;;5064650;28;20898;-71
2022/04/29 11:08:45;;;;;;;0.00;0.00;;;19.70;17.30;320.30;52026.00;;;;5087067;28;20326;-71
2022/04/29 11:11:14;;;;;;;0.00;0.00;;;19.70;40.70;320.40;52018.00;;;;5070976;28;20213;-72
2022/04/29 11:14:02;;;;;;;0.00;0.00;;;19.80;25.50;320.80;51986.00;;;;5059557;28;20275;-71
2022/04/29 11:16:52;;;;;;;0.00;0.00;;;19.90;38.70;321.30;51947.00;;;;5070266;28;20678;-71
2022/04/29 11:19:47;;;;;;;0.00;0.00;;;20.10;30.40;322.00;51891.00;;;;5067277;28;20739;-71
2022/04/29 11:25:10;;;;;;;0.00;0.00;;;20.70;20.10;322.70;51838.00;;;;5071364;28;20217;-71
2022/04/29 11:27:41;;;;;;;0.00;0.00;;;20.80;31.50;321.60;51914.00;;;;5070838;28;20205;-72
2022/04/29 11:30:33;;;;;;;0.00;0.00;;;20.50;18.80;321.60;51922.00;;;;5069529;28;20227;-72
2022/04/29 11:33:04;;;;;;;0.00;0.00;;;20.20;9.30;321.60;51913.00;;;;5069823;28;20534;-72
2022/04/29 11:35:32;;;;;;;0.00;0.00;;;20.30;17.40;321.20;51954.00;;;;5077054;28;20224;-71
2022/04/29 11:38:01;;;;;;;0.00;0.00;;;20.10;19.40;321.40;51935.00;;;;5073021;28;20194;-71
2022/04/29 11:40:31;;;;;;;0.00;0.00;;;20.20;57.70;321.80;51907.00;;;;5073673;28;20208;-72
2022/04/29 11:42:59;;;;;;;0.00;0.00;;;20.40;44.50;320.60;51951.00;;;;5069741;28;20200;-71
2022/04/29 11:45:30;;;;;;;0.00;0.00;;;20.30;26.90;321.50;51925.00;;;;5073228;28;20214;-71
2022/04/29 11:48:06;;;;;;;0.00;0.00;;;20.30;10.90;320.80;51972.00;;;;5071240;28;20766;-71
2022/04/29 11:50:38;;;;;;;0.00;0.00;;;20.20;49.80;320.20;52017.00;;;;5067985;28;20264;-71
2022/04/29 11:53:09;;;;;;;0.00;0.00;;;19.90;14.30;320.50;51997.00;;;;5069549;28;20202;-71
2022/04/29 11:55:38;;;;;;;0.00;0.00;;;19.90;12.50;320.70;51980.00;;;;5084676;28;20646;-71
2022/04/29 11:58:09;;;;;;;0.00;0.00;;;19.90;29.70;321.20;51947.00;;;;5074062;28;20255;-72